Sandpoint, ID

9:39 PM PDT on September 15, 2014 (GMT -0700)
Selle Valley | Change Station
CLOSE
Current Station
Personal Weather Station
Location: Sandpoint, ID
Elevation: 2169 ft
Nearby Weather Stations

Elev 2169 ft 48.38 °N, 116.48 °W | Updated 18 seconds ago

Clear
Clear
54.5 °F
Feels Like 54.5 °F
N
0.0
Wind Variable Wind from NNE
Gusts 0.0 mph

Today
High -- | Low -- °F
--% Chance of Precip.
Yesterday
High -- | Low -- °F
Precip. -- in
6:23 AM 6:58 PM
Waning Gibbous, 49% visible
Pressure 29.95 in
Visibility 10.0 miles
Clouds Clear
Dew Point 46 °F
Humidity 74%
Rainfall 0.00 in
Snow Depth 0 in , 0 in , 0 in
UV 0 out of 12
Pollen 7.00 out of 12
Air Quality Not available.
Flu Activity Not available.
METAR KSZT 160415Z AUTO 00000KT 10SM CLR 10/06 A2995 RMK AO2

More Conditions Fewer Conditions

Pressure 29.95 in
Visibility 10.0 miles
Clouds Clear
Dew Point 46 °F
Humidity 74%
Rainfall 0.00 in
Snow Depth 0 in , 0 in , 0 in
UV 0 out of 12
Pollen 7.00 out of 12
Air Quality Not available.
Flu Activity Not available.
METAR KSZT 160415Z AUTO 00000KT 10SM CLR 10/06 A2995 RMK AO2

More Conditions Fewer Conditions

10-Day Weather Forecast

Almanac

Astronomy

Sep. 15, 2014 Rise Set
Actual Time 6:23 AM PDT 6:58 PM PDT
Civil Twilight 5:51 AM PDT 7:29 PM PDT
Nautical Twilight 5:14 AM PDT 8:07 PM PDT
Astronomical Twilight 4:35 AM PDT 8:45 PM PDT
Moon 11:17 PM PDT (9/15) 1:54 PM PDT (9/15)
Length of Visible Light 13h 38m
Length of Day
12h 35m
Tomorrow will be 3m 29s shorter.
Waning Gibbous, 49% of the Moon is Illuminated
Sep 16
Waning Gibbous
Sep 24
New
Oct 1
First Quarter
Oct 8
Full
Oct 15
Last Quarter

Yesterday's Extremes

State Highs State Lows

Community

WunderPhotos

Upload Photos

1,753,702 photos uploaded!

Nearby

Snow Depth

Station Depth Elevation
Hilts Creek 0 in 8000 ft
Schweitzer Basin 0 in 6090 ft
Hyndman 0 in 7440 ft
Savage Pass 1 in 6170 ft
Crater Meadows 0 in 5960 ft

Earthquake Activity

City Distance Mag. Time & Date
No recent earthquake activity has been reported nearby.
Minimum magnitude displayed is 2.5.

Coastal Water Temperatures

Place Temperature
No Stations Reporting

Nearby Weather Stations